sensor_id;sensor_type;location;lat;lon;timestamp;P1;durP1;ratioP1;P2;durP2;ratioP2
51943;SDS011;37969;53.132;6.370;2023-09-19T00:01:08;9.27;;;2.30;;
51943;SDS011;37969;53.132;6.370;2023-09-19T00:03:34;10.65;;;2.35;;
51943;SDS011;37969;53.132;6.370;2023-09-19T00:06:02;12.65;;;2.22;;
51943;SDS011;37969;53.132;6.370;2023-09-19T00:08:30;12.07;;;2.22;;
51943;SDS011;37969;53.132;6.370;2023-09-19T00:10:58;11.13;;;1.80;;
51943;SDS011;37969;53.132;6.370;2023-09-19T00:13:31;11.18;;;2.30;;
51943;SDS011;37969;53.132;6.370;2023-09-19T00:15:58;7.97;;;1.98;;
51943;SDS011;37969;53.132;6.370;2023-09-19T00:18:25;12.35;;;2.35;;
51943;SDS011;37969;53.132;6.370;2023-09-19T00:20:57;13.90;;;2.65;;
51943;SDS011;37969;53.132;6.370;2023-09-19T00:23:24;11.05;;;2.38;;
51943;SDS011;37969;53.132;6.370;2023-09-19T00:25:50;8.30;;;2.25;;
51943;SDS011;37969;53.132;6.370;2023-09-19T00:28:17;12.98;;;2.25;;
51943;SDS011;37969;53.132;6.370;2023-09-19T00:30:45;6.07;;;1.83;;
51943;SDS011;37969;53.132;6.370;2023-09-19T00:33:15;8.75;;;2.22;;
51943;SDS011;37969;53.132;6.370;2023-09-19T00:35:48;10.32;;;2.63;;
51943;SDS011;37969;53.132;6.370;2023-09-19T00:38:15;10.57;;;2.45;;
51943;SDS011;37969;53.132;6.370;2023-09-19T00:40:44;13.77;;;2.78;;
51943;SDS011;37969;53.132;6.370;2023-09-19T00:43:10;9.55;;;2.25;;
51943;SDS011;37969;53.132;6.370;2023-09-19T00:45:37;11.05;;;2.38;;
51943;SDS011;37969;53.132;6.370;2023-09-19T00:50:34;10.35;;;2.30;;
51943;SDS011;37969;53.132;6.370;2023-09-19T00:53:00;15.85;;;2.65;;
51943;SDS011;37969;53.132;6.370;2023-09-19T00:55:28;11.63;;;2.50;;
51943;SDS011;37969;53.132;6.370;2023-09-19T01:00:23;8.65;;;2.50;;
51943;SDS011;37969;53.132;6.370;2023-09-19T01:02:50;10.82;;;1.98;;
51943;SDS011;37969;53.132;6.370;2023-09-19T01:05:16;12.20;;;2.78;;
51943;SDS011;37969;53.132;6.370;2023-09-19T01:07:44;11.40;;;2.17;;
51943;SDS011;37969;53.132;6.370;2023-09-19T01:10:12;7.20;;;2.35;;
51943;SDS011;37969;53.132;6.370;2023-09-19T01:15:21;8.90;;;2.35;;
51943;SDS011;37969;53.132;6.370;2023-09-19T01:20:25;9.60;;;2.22;;
51943;SDS011;37969;53.132;6.370;2023-09-19T01:25:50;8.65;;;2.35;;
51943;SDS011;37969;53.132;6.370;2023-09-19T01:31:02;8.77;;;2.42;;
51943;SDS011;37969;53.132;6.370;2023-09-19T01:36:16;10.18;;;2.17;;
51943;SDS011;37969;53.132;6.370;2023-09-19T01:38:42;8.60;;;2.45;;
51943;SDS011;37969;53.132;6.370;2023-09-19T01:41:11;7.78;;;2.20;;
51943;SDS011;37969;53.132;6.370;2023-09-19T01:43:38;8.77;;;2.33;;
51943;SDS011;37969;53.132;6.370;2023-09-19T01:48:35;13.00;;;3.10;;
51943;SDS011;37969;53.132;6.370;2023-09-19T01:51:06;7.97;;;2.30;;
51943;SDS011;37969;53.132;6.370;2023-09-19T01:53:34;7.85;;;1.90;;
51943;SDS011;37969;53.132;6.370;2023-09-19T01:56:01;12.90;;;2.50;;
51943;SDS011;37969;53.132;6.370;2023-09-19T01:58:34;13.18;;;2.20;;
51943;SDS011;37969;53.132;6.370;2023-09-19T02:01:03;11.68;;;2.72;;
51943;SDS011;37969;53.132;6.370;2023-09-19T02:03:31;11.18;;;2.08;;
51943;SDS011;37969;53.132;6.370;2023-09-19T02:05:57;6.90;;;1.95;;
51943;SDS011;37969;53.132;6.370;2023-09-19T02:08:24;12.02;;;2.22;;
51943;SDS011;37969;53.132;6.370;2023-09-19T02:10:50;8.10;;;2.08;;
51943;SDS011;37969;53.132;6.370;2023-09-19T02:13:19;12.23;;;2.72;;
51943;SDS011;37969;53.132;6.370;2023-09-19T02:15:45;12.38;;;2.88;;
51943;SDS011;37969;53.132;6.370;2023-09-19T02:18:12;8.95;;;2.22;;
51943;SDS011;37969;53.132;6.370;2023-09-19T02:20:39;8.43;;;2.47;;
51943;SDS011;37969;53.132;6.370;2023-09-19T02:23:05;10.75;;;2.67;;
51943;SDS011;37969;53.132;6.370;2023-09-19T02:25:33;11.23;;;2.50;;
51943;SDS011;37969;53.132;6.370;2023-09-19T02:28:00;11.63;;;2.30;;
51943;SDS011;37969;53.132;6.370;2023-09-19T02:30:28;12.32;;;2.55;;
51943;SDS011;37969;53.132;6.370;2023-09-19T02:32:54;10.27;;;2.45;;
51943;SDS011;37969;53.132;6.370;2023-09-19T02:35:20;8.52;;;2.05;;
51943;SDS011;37969;53.132;6.370;2023-09-19T02:37:47;11.23;;;2.88;;
51943;SDS011;37969;53.132;6.370;2023-09-19T02:40:14;14.77;;;2.17;;
51943;SDS011;37969;53.132;6.370;2023-09-19T02:42:47;6.68;;;1.83;;
51943;SDS011;37969;53.132;6.370;2023-09-19T02:45:15;13.13;;;2.55;;
51943;SDS011;37969;53.132;6.370;2023-09-19T02:47:43;12.32;;;2.45;;
51943;SDS011;37969;53.132;6.370;2023-09-19T02:50:10;8.23;;;2.03;;
51943;SDS011;37969;53.132;6.370;2023-09-19T02:52:36;3.72;;;1.65;;
51943;SDS011;37969;53.132;6.370;2023-09-19T02:55:03;5.57;;;1.67;;
51943;SDS011;37969;53.132;6.370;2023-09-19T02:57:31;11.23;;;2.20;;
51943;SDS011;37969;53.132;6.370;2023-09-19T02:59:58;12.50;;;2.35;;
51943;SDS011;37969;53.132;6.370;2023-09-19T03:02:25;11.10;;;2.40;;
51943;SDS011;37969;53.132;6.370;2023-09-19T03:04:53;8.13;;;1.90;;
51943;SDS011;37969;53.132;6.370;2023-09-19T03:07:19;9.55;;;2.10;;
51943;SDS011;37969;53.132;6.370;2023-09-19T03:09:45;13.90;;;2.42;;
51943;SDS011;37969;53.132;6.370;2023-09-19T03:12:12;8.60;;;2.30;;
51943;SDS011;37969;53.132;6.370;2023-09-19T03:14:41;8.60;;;2.20;;
51943;SDS011;37969;53.132;6.370;2023-09-19T03:17:07;9.27;;;2.58;;
51943;SDS011;37969;53.132;6.370;2023-09-19T03:19:34;7.07;;;2.38;;
51943;SDS011;37969;53.132;6.370;2023-09-19T03:22:02;7.68;;;1.73;;
51943;SDS011;37969;53.132;6.370;2023-09-19T03:24:28;5.53;;;1.85;;
51943;SDS011;37969;53.132;6.370;2023-09-19T03:26:56;10.00;;;2.20;;
51943;SDS011;37969;53.132;6.370;2023-09-19T03:29:23;11.48;;;2.22;;
51943;SDS011;37969;53.132;6.370;2023-09-19T03:31:50;6.90;;;2.15;;
51943;SDS011;37969;53.132;6.370;2023-09-19T03:34:16;8.00;;;2.63;;
51943;SDS011;37969;53.132;6.370;2023-09-19T03:36:43;9.43;;;2.70;;
51943;SDS011;37969;53.132;6.370;2023-09-19T03:39:09;9.27;;;2.33;;
51943;SDS011;37969;53.132;6.370;2023-09-19T03:41:35;11.48;;;2.30;;
51943;SDS011;37969;53.132;6.370;2023-09-19T03:44:02;8.80;;;2.13;;
51943;SDS011;37969;53.132;6.370;2023-09-19T03:46:28;10.68;;;2.13;;
51943;SDS011;37969;53.132;6.370;2023-09-19T03:48:55;9.25;;;2.40;;
51943;SDS011;37969;53.132;6.370;2023-09-19T03:51:21;13.95;;;2.53;;
51943;SDS011;37969;53.132;6.370;2023-09-19T03:53:47;9.52;;;2.72;;
51943;SDS011;37969;53.132;6.370;2023-09-19T03:56:15;8.32;;;2.03;;
51943;SDS011;37969;53.132;6.370;2023-09-19T03:58:41;12.48;;;2.25;;
51943;SDS011;37969;53.132;6.370;2023-09-19T04:01:07;15.15;;;2.33;;
51943;SDS011;37969;53.132;6.370;2023-09-19T04:03:34;9.32;;;2.22;;
51943;SDS011;37969;53.132;6.370;2023-09-19T04:06:11;10.82;;;2.42;;
51943;SDS011;37969;53.132;6.370;2023-09-19T04:08:37;12.07;;;2.35;;
51943;SDS011;37969;53.132;6.370;2023-09-19T04:11:03;8.82;;;2.67;;
51943;SDS011;37969;53.132;6.370;2023-09-19T04:13:29;9.93;;;2.47;;
51943;SDS011;37969;53.132;6.370;2023-09-19T04:15:57;7.85;;;2.08;;
51943;SDS011;37969;53.132;6.370;2023-09-19T04:18:23;7.57;;;2.35;;
51943;SDS011;37969;53.132;6.370;2023-09-19T04:20:50;11.30;;;2.58;;
51943;SDS011;37969;53.132;6.370;2023-09-19T04:23:16;12.68;;;2.88;;
51943;SDS011;37969;53.132;6.370;2023-09-19T04:25:43;11.27;;;2.83;;
51943;SDS011;37969;53.132;6.370;2023-09-19T04:28:09;8.20;;;2.40;;
51943;SDS011;37969;53.132;6.370;2023-09-19T04:30:36;15.52;;;2.80;;
51943;SDS011;37969;53.132;6.370;2023-09-19T04:33:03;9.88;;;2.55;;
51943;SDS011;37969;53.132;6.370;2023-09-19T04:35:30;5.95;;;2.28;;
51943;SDS011;37969;53.132;6.370;2023-09-19T04:37:56;9.25;;;2.85;;
51943;SDS011;37969;53.132;6.370;2023-09-19T04:40:22;17.42;;;2.17;;
51943;SDS011;37969;53.132;6.370;2023-09-19T04:42:53;12.02;;;2.60;;
51943;SDS011;37969;53.132;6.370;2023-09-19T04:45:23;20.60;;;2.50;;
51943;SDS011;37969;53.132;6.370;2023-09-19T04:47:49;10.02;;;2.60;;
51943;SDS011;37969;53.132;6.370;2023-09-19T04:50:15;7.03;;;2.28;;
51943;SDS011;37969;53.132;6.370;2023-09-19T04:52:42;11.15;;;2.40;;
51943;SDS011;37969;53.132;6.370;2023-09-19T04:55:11;10.57;;;2.15;;
51943;SDS011;37969;53.132;6.370;2023-09-19T04:57:46;10.13;;;2.38;;
51943;SDS011;37969;53.132;6.370;2023-09-19T05:00:13;11.70;;;2.35;;
51943;SDS011;37969;53.132;6.370;2023-09-19T05:02:41;9.07;;;2.30;;
51943;SDS011;37969;53.132;6.370;2023-09-19T05:05:08;14.52;;;2.72;;
51943;SDS011;37969;53.132;6.370;2023-09-19T05:07:36;10.85;;;2.50;;
51943;SDS011;37969;53.132;6.370;2023-09-19T05:10:02;11.70;;;2.85;;
51943;SDS011;37969;53.132;6.370;2023-09-19T05:12:32;11.45;;;2.67;;
51943;SDS011;37969;53.132;6.370;2023-09-19T05:14:59;10.07;;;2.42;;
51943;SDS011;37969;53.132;6.370;2023-09-19T05:17:26;14.00;;;2.88;;
51943;SDS011;37969;53.132;6.370;2023-09-19T05:19:53;10.45;;;1.95;;
51943;SDS011;37969;53.132;6.370;2023-09-19T05:22:19;9.00;;;2.22;;
51943;SDS011;37969;53.132;6.370;2023-09-19T05:24:45;12.00;;;2.47;;
51943;SDS011;37969;53.132;6.370;2023-09-19T05:27:13;16.98;;;2.78;;
51943;SDS011;37969;53.132;6.370;2023-09-19T05:29:43;11.73;;;2.55;;
51943;SDS011;37969;53.132;6.370;2023-09-19T05:32:10;8.10;;;2.55;;
51943;SDS011;37969;53.132;6.370;2023-09-19T05:34:36;28.58;;;4.03;;
51943;SDS011;37969;53.132;6.370;2023-09-19T05:37:03;16.05;;;2.65;;
51943;SDS011;37969;53.132;6.370;2023-09-19T05:39:32;8.38;;;2.15;;
51943;SDS011;37969;53.132;6.370;2023-09-19T05:41:58;10.48;;;2.38;;
51943;SDS011;37969;53.132;6.370;2023-09-19T05:44:25;13.48;;;2.17;;
51943;SDS011;37969;53.132;6.370;2023-09-19T05:46:53;9.90;;;2.42;;
51943;SDS011;37969;53.132;6.370;2023-09-19T05:49:22;18.30;;;3.10;;
51943;SDS011;37969;53.132;6.370;2023-09-19T05:51:49;8.77;;;2.58;;
51943;SDS011;37969;53.132;6.370;2023-09-19T05:54:19;14.70;;;2.58;;
51943;SDS011;37969;53.132;6.370;2023-09-19T05:56:45;14.05;;;2.80;;
51943;SDS011;37969;53.132;6.370;2023-09-19T05:59:12;10.55;;;2.40;;
51943;SDS011;37969;53.132;6.370;2023-09-19T06:01:41;17.02;;;2.67;;
51943;SDS011;37969;53.132;6.370;2023-09-19T06:04:07;14.20;;;2.20;;
51943;SDS011;37969;53.132;6.370;2023-09-19T06:06:34;15.18;;;2.92;;
51943;SDS011;37969;53.132;6.370;2023-09-19T06:11:31;10.35;;;3.00;;
51943;SDS011;37969;53.132;6.370;2023-09-19T06:14:00;15.35;;;2.90;;
51943;SDS011;37969;53.132;6.370;2023-09-19T06:16:27;18.73;;;2.75;;
51943;SDS011;37969;53.132;6.370;2023-09-19T06:18:54;16.00;;;2.55;;
51943;SDS011;37969;53.132;6.370;2023-09-19T06:21:22;12.32;;;3.25;;
51943;SDS011;37969;53.132;6.370;2023-09-19T06:23:48;12.13;;;2.60;;
51943;SDS011;37969;53.132;6.370;2023-09-19T06:26:15;18.48;;;2.92;;
51943;SDS011;37969;53.132;6.370;2023-09-19T06:28:41;13.45;;;2.67;;
51943;SDS011;37969;53.132;6.370;2023-09-19T06:31:09;15.13;;;3.38;;
51943;SDS011;37969;53.132;6.370;2023-09-19T06:33:35;7.97;;;2.47;;
51943;SDS011;37969;53.132;6.370;2023-09-19T06:36:04;9.40;;;2.83;;
51943;SDS011;37969;53.132;6.370;2023-09-19T06:38:30;13.38;;;2.45;;
51943;SDS011;37969;53.132;6.370;2023-09-19T06:40:59;14.07;;;2.50;;
51943;SDS011;37969;53.132;6.370;2023-09-19T06:43:26;10.48;;;2.20;;
51943;SDS011;37969;53.132;6.370;2023-09-19T06:45:55;16.60;;;2.70;;
51943;SDS011;37969;53.132;6.370;2023-09-19T06:48:22;10.45;;;2.30;;
51943;SDS011;37969;53.132;6.370;2023-09-19T06:50:50;14.00;;;2.65;;
51943;SDS011;37969;53.132;6.370;2023-09-19T06:53:16;11.52;;;2.22;;
51943;SDS011;37969;53.132;6.370;2023-09-19T06:55:43;21.40;;;2.63;;
51943;SDS011;37969;53.132;6.370;2023-09-19T06:58:10;13.38;;;2.60;;
51943;SDS011;37969;53.132;6.370;2023-09-19T07:00:36;12.32;;;2.83;;
51943;SDS011;37969;53.132;6.370;2023-09-19T07:03:04;13.02;;;2.33;;
51943;SDS011;37969;53.132;6.370;2023-09-19T07:05:33;10.45;;;2.28;;
51943;SDS011;37969;53.132;6.370;2023-09-19T07:08:02;10.73;;;2.40;;
51943;SDS011;37969;53.132;6.370;2023-09-19T07:10:29;14.82;;;2.70;;
51943;SDS011;37969;53.132;6.370;2023-09-19T07:12:56;12.45;;;2.85;;
51943;SDS011;37969;53.132;6.370;2023-09-19T07:15:23;12.23;;;3.17;;
51943;SDS011;37969;53.132;6.370;2023-09-19T07:17:51;13.25;;;2.80;;
51943;SDS011;37969;53.132;6.370;2023-09-19T07:20:18;14.98;;;2.88;;
51943;SDS011;37969;53.132;6.370;2023-09-19T07:22:44;13.40;;;3.10;;
51943;SDS011;37969;53.132;6.370;2023-09-19T07:25:12;15.55;;;3.67;;
51943;SDS011;37969;53.132;6.370;2023-09-19T07:27:40;11.52;;;2.67;;
51943;SDS011;37969;53.132;6.370;2023-09-19T07:30:06;15.27;;;2.95;;
51943;SDS011;37969;53.132;6.370;2023-09-19T07:32:33;10.43;;;2.80;;
51943;SDS011;37969;53.132;6.370;2023-09-19T07:35:06;12.80;;;2.92;;
51943;SDS011;37969;53.132;6.370;2023-09-19T07:37:32;17.40;;;3.53;;
51943;SDS011;37969;53.132;6.370;2023-09-19T07:39:59;13.18;;;2.70;;
51943;SDS011;37969;53.132;6.370;2023-09-19T07:42:26;11.77;;;2.63;;
51943;SDS011;37969;53.132;6.370;2023-09-19T07:44:53;11.75;;;2.83;;
51943;SDS011;37969;53.132;6.370;2023-09-19T07:47:19;15.35;;;3.35;;
51943;SDS011;37969;53.132;6.370;2023-09-19T07:49:47;14.57;;;3.30;;
51943;SDS011;37969;53.132;6.370;2023-09-19T07:52:13;10.38;;;2.47;;
51943;SDS011;37969;53.132;6.370;2023-09-19T07:54:40;15.90;;;3.15;;
51943;SDS011;37969;53.132;6.370;2023-09-19T07:57:09;13.80;;;2.50;;
51943;SDS011;37969;53.132;6.370;2023-09-19T07:59:36;15.32;;;3.42;;
51943;SDS011;37969;53.132;6.370;2023-09-19T08:02:04;14.30;;;2.97;;
51943;SDS011;37969;53.132;6.370;2023-09-19T08:04:30;12.05;;;3.05;;
51943;SDS011;37969;53.132;6.370;2023-09-19T08:06:59;11.63;;;2.78;;
51943;SDS011;37969;53.132;6.370;2023-09-19T08:09:26;16.13;;;3.20;;
51943;SDS011;37969;53.132;6.370;2023-09-19T08:11:53;19.67;;;2.88;;
51943;SDS011;37969;53.132;6.370;2023-09-19T08:14:19;10.25;;;2.78;;
51943;SDS011;37969;53.132;6.370;2023-09-19T08:16:45;11.40;;;2.40;;
51943;SDS011;37969;53.132;6.370;2023-09-19T08:19:12;13.48;;;3.80;;
51943;SDS011;37969;53.132;6.370;2023-09-19T08:21:40;13.82;;;2.60;;
51943;SDS011;37969;53.132;6.370;2023-09-19T08:24:06;14.52;;;3.13;;
51943;SDS011;37969;53.132;6.370;2023-09-19T08:26:34;13.02;;;2.60;;
51943;SDS011;37969;53.132;6.370;2023-09-19T08:29:03;10.73;;;2.65;;
51943;SDS011;37969;53.132;6.370;2023-09-19T08:31:32;18.20;;;3.15;;
51943;SDS011;37969;53.132;6.370;2023-09-19T08:33:59;11.27;;;3.40;;
51943;SDS011;37969;53.132;6.370;2023-09-19T08:36:25;12.55;;;2.85;;
51943;SDS011;37969;53.132;6.370;2023-09-19T08:38:51;7.75;;;2.40;;
51943;SDS011;37969;53.132;6.370;2023-09-19T08:41:17;12.70;;;3.03;;
51943;SDS011;37969;53.132;6.370;2023-09-19T08:43:44;10.50;;;2.60;;
51943;SDS011;37969;53.132;6.370;2023-09-19T08:46:14;13.15;;;3.00;;
51943;SDS011;37969;53.132;6.370;2023-09-19T08:48:46;10.77;;;3.05;;
51943;SDS011;37969;53.132;6.370;2023-09-19T08:51:18;12.40;;;2.40;;
51943;SDS011;37969;53.132;6.370;2023-09-19T08:53:50;17.77;;;3.20;;
51943;SDS011;37969;53.132;6.370;2023-09-19T08:56:18;13.55;;;2.90;;
51943;SDS011;37969;53.132;6.370;2023-09-19T08:58:54;14.20;;;3.05;;
51943;SDS011;37969;53.132;6.370;2023-09-19T09:01:22;20.85;;;3.92;;
51943;SDS011;37969;53.132;6.370;2023-09-19T09:03:51;11.02;;;3.40;;
51943;SDS011;37969;53.132;6.370;2023-09-19T09:06:19;16.30;;;3.20;;
51943;SDS011;37969;53.132;6.370;2023-09-19T09:08:45;12.90;;;3.90;;
51943;SDS011;37969;53.132;6.370;2023-09-19T09:11:12;16.02;;;3.70;;
51943;SDS011;37969;53.132;6.370;2023-09-19T09:13:39;12.90;;;3.20;;
51943;SDS011;37969;53.132;6.370;2023-09-19T09:16:07;13.88;;;2.92;;
51943;SDS011;37969;53.132;6.370;2023-09-19T09:18:35;17.50;;;4.28;;
51943;SDS011;37969;53.132;6.370;2023-09-19T09:21:01;15.15;;;3.40;;
51943;SDS011;37969;53.132;6.370;2023-09-19T09:23:29;17.90;;;3.33;;
51943;SDS011;37969;53.132;6.370;2023-09-19T09:25:57;15.95;;;3.78;;
51943;SDS011;37969;53.132;6.370;2023-09-19T09:28:27;15.20;;;3.50;;
51943;SDS011;37969;53.132;6.370;2023-09-19T09:30:54;12.88;;;3.55;;
51943;SDS011;37969;53.132;6.370;2023-09-19T09:33:21;16.52;;;3.58;;
51943;SDS011;37969;53.132;6.370;2023-09-19T09:35:49;20.75;;;4.03;;
51943;SDS011;37969;53.132;6.370;2023-09-19T09:38:21;17.60;;;3.47;;
51943;SDS011;37969;53.132;6.370;2023-09-19T09:40:53;15.18;;;3.88;;
51943;SDS011;37969;53.132;6.370;2023-09-19T09:48:35;21.10;;;5.00;;
51943;SDS011;37969;53.132;6.370;2023-09-19T09:51:04;14.95;;;3.50;;
51943;SDS011;37969;53.132;6.370;2023-09-19T09:53:33;27.63;;;3.67;;
51943;SDS011;37969;53.132;6.370;2023-09-19T09:56:01;17.50;;;4.03;;
51943;SDS011;37969;53.132;6.370;2023-09-19T09:58:32;19.17;;;4.30;;
51943;SDS011;37969;53.132;6.370;2023-09-19T10:00:59;17.00;;;3.60;;
51943;SDS011;37969;53.132;6.370;2023-09-19T10:03:34;17.55;;;3.92;;
51943;SDS011;37969;53.132;6.370;2023-09-19T10:06:05;11.02;;;2.80;;
51943;SDS011;37969;53.132;6.370;2023-09-19T10:08:58;16.58;;;3.40;;
51943;SDS011;37969;53.132;6.370;2023-09-19T10:11:30;13.85;;;3.45;;
51943;SDS011;37969;53.132;6.370;2023-09-19T10:13:57;21.75;;;3.97;;
51943;SDS011;37969;53.132;6.370;2023-09-19T10:16:26;15.50;;;3.42;;
51943;SDS011;37969;53.132;6.370;2023-09-19T10:21:23;13.82;;;3.45;;
51943;SDS011;37969;53.132;6.370;2023-09-19T10:23:50;19.88;;;3.75;;
51943;SDS011;37969;53.132;6.370;2023-09-19T10:26:17;15.57;;;3.63;;
51943;SDS011;37969;53.132;6.370;2023-09-19T10:28:46;12.13;;;3.45;;
51943;SDS011;37969;53.132;6.370;2023-09-19T10:31:13;15.60;;;3.70;;
51943;SDS011;37969;53.132;6.370;2023-09-19T10:33:44;22.38;;;4.05;;
51943;SDS011;37969;53.132;6.370;2023-09-19T10:36:11;21.70;;;3.58;;
51943;SDS011;37969;53.132;6.370;2023-09-19T10:38:38;16.48;;;4.10;;
51943;SDS011;37969;53.132;6.370;2023-09-19T10:41:06;14.70;;;4.18;;
51943;SDS011;37969;53.132;6.370;2023-09-19T10:43:33;12.65;;;3.00;;
51943;SDS011;37969;53.132;6.370;2023-09-19T10:46:02;14.05;;;3.92;;
51943;SDS011;37969;53.132;6.370;2023-09-19T10:48:30;16.13;;;3.60;;
51943;SDS011;37969;53.132;6.370;2023-09-19T10:51:02;18.05;;;3.97;;
51943;SDS011;37969;53.132;6.370;2023-09-19T10:53:32;11.95;;;3.20;;
51943;SDS011;37969;53.132;6.370;2023-09-19T10:56:06;15.15;;;3.65;;
51943;SDS011;37969;53.132;6.370;2023-09-19T10:58:39;13.27;;;4.28;;
51943;SDS011;37969;53.132;6.370;2023-09-19T11:01:09;14.15;;;3.67;;
51943;SDS011;37969;53.132;6.370;2023-09-19T11:03:38;16.52;;;3.55;;
51943;SDS011;37969;53.132;6.370;2023-09-19T11:06:09;19.25;;;3.38;;
51943;SDS011;37969;53.132;6.370;2023-09-19T11:20:14;15.52;;;3.60;;
51943;SDS011;37969;53.132;6.370;2023-09-19T11:22:22;12.27;;;3.35;;
51943;SDS011;37969;53.132;6.370;2023-09-19T11:24:51;31.67;;;3.80;;
51943;SDS011;37969;53.132;6.370;2023-09-19T11:27:21;10.23;;;3.30;;
51943;SDS011;37969;53.132;6.370;2023-09-19T11:29:50;11.27;;;3.65;;
51943;SDS011;37969;53.132;6.370;2023-09-19T11:33:15;12.95;;;3.55;;
51943;SDS011;37969;53.132;6.370;2023-09-19T11:43:49;16.17;;;2.97;;
51943;SDS011;37969;53.132;6.370;2023-09-19T11:46:16;17.40;;;3.75;;
51943;SDS011;37969;53.132;6.370;2023-09-19T11:48:48;17.13;;;3.15;;
51943;SDS011;37969;53.132;6.370;2023-09-19T11:51:16;16.95;;;3.30;;
51943;SDS011;37969;53.132;6.370;2023-09-19T11:53:49;12.10;;;3.28;;
51943;SDS011;37969;53.132;6.370;2023-09-19T11:56:16;17.60;;;3.75;;
51943;SDS011;37969;53.132;6.370;2023-09-19T11:58:43;10.82;;;3.20;;
51943;SDS011;37969;53.132;6.370;2023-09-19T12:01:12;16.90;;;3.35;;
51943;SDS011;37969;53.132;6.370;2023-09-19T12:03:42;17.92;;;3.72;;
51943;SDS011;37969;53.132;6.370;2023-09-19T12:06:11;19.95;;;2.95;;
51943;SDS011;37969;53.132;6.370;2023-09-19T12:08:40;15.20;;;3.00;;
51943;SDS011;37969;53.132;6.370;2023-09-19T12:11:11;15.65;;;2.97;;
51943;SDS011;37969;53.132;6.370;2023-09-19T12:13:42;15.80;;;3.25;;
51943;SDS011;37969;53.132;6.370;2023-09-19T12:16:11;15.93;;;2.95;;
51943;SDS011;37969;53.132;6.370;2023-09-19T12:18:40;19.45;;;3.47;;
51943;SDS011;37969;53.132;6.370;2023-09-19T12:21:24;14.93;;;4.03;;
51943;SDS011;37969;53.132;6.370;2023-09-19T12:23:57;15.95;;;3.15;;
51943;SDS011;37969;53.132;6.370;2023-09-19T12:26:23;12.75;;;2.60;;
51943;SDS011;37969;53.132;6.370;2023-09-19T12:28:49;12.65;;;3.17;;
51943;SDS011;37969;53.132;6.370;2023-09-19T12:31:18;18.20;;;3.25;;
51943;SDS011;37969;53.132;6.370;2023-09-19T12:33:44;13.93;;;3.58;;
51943;SDS011;37969;53.132;6.370;2023-09-19T12:36:21;16.25;;;2.83;;
51943;SDS011;37969;53.132;6.370;2023-09-19T12:38:55;10.80;;;3.17;;
51943;SDS011;37969;53.132;6.370;2023-09-19T12:41:24;10.85;;;2.92;;
51943;SDS011;37969;53.132;6.370;2023-09-19T12:43:53;16.67;;;2.42;;
51943;SDS011;37969;53.132;6.370;2023-09-19T12:46:20;10.07;;;2.40;;
51943;SDS011;37969;53.132;6.370;2023-09-19T12:49:14;11.30;;;2.30;;
51943;SDS011;37969;53.132;6.370;2023-09-19T12:51:38;10.20;;;2.33;;
51943;SDS011;37969;53.132;6.370;2023-09-19T12:54:04;10.60;;;2.35;;
51943;SDS011;37969;53.132;6.370;2023-09-19T12:56:39;15.27;;;2.92;;
51943;SDS011;37969;53.132;6.370;2023-09-19T12:59:11;9.48;;;2.00;;
51943;SDS011;37969;53.132;6.370;2023-09-19T13:01:39;13.67;;;2.27;;
51943;SDS011;37969;53.132;6.370;2023-09-19T13:04:16;7.05;;;2.15;;
51943;SDS011;37969;53.132;6.370;2023-09-19T13:06:45;9.48;;;2.47;;
51943;SDS011;37969;53.132;6.370;2023-09-19T13:09:13;9.80;;;2.45;;
51943;SDS011;37969;53.132;6.370;2023-09-19T13:11:41;8.30;;;2.40;;
51943;SDS011;37969;53.132;6.370;2023-09-19T13:21:49;13.75;;;2.63;;
51943;SDS011;37969;53.132;6.370;2023-09-19T13:24:21;12.90;;;2.25;;
51943;SDS011;37969;53.132;6.370;2023-09-19T13:26:48;7.28;;;1.73;;
51943;SDS011;37969;53.132;6.370;2023-09-19T13:29:15;6.95;;;2.20;;
51943;SDS011;37969;53.132;6.370;2023-09-19T13:31:47;6.68;;;2.00;;
51943;SDS011;37969;53.132;6.370;2023-09-19T13:34:13;8.75;;;1.70;;
51943;SDS011;37969;53.132;6.370;2023-09-19T13:36:41;9.45;;;1.55;;
51943;SDS011;37969;53.132;6.370;2023-09-19T13:39:07;12.48;;;2.05;;
51943;SDS011;37969;53.132;6.370;2023-09-19T13:41:35;7.72;;;1.95;;
51943;SDS011;37969;53.132;6.370;2023-09-19T13:44:03;6.57;;;2.00;;
51943;SDS011;37969;53.132;6.370;2023-09-19T13:46:29;11.48;;;2.20;;
51943;SDS011;37969;53.132;6.370;2023-09-19T13:48:58;7.75;;;1.88;;
51943;SDS011;37969;53.132;6.370;2023-09-19T13:51:26;8.70;;;2.20;;
51943;SDS011;37969;53.132;6.370;2023-09-19T13:53:52;3.88;;;1.27;;
51943;SDS011;37969;53.132;6.370;2023-09-19T13:56:19;7.13;;;1.75;;
51943;SDS011;37969;53.132;6.370;2023-09-19T13:58:45;6.35;;;1.38;;
51943;SDS011;37969;53.132;6.370;2023-09-19T14:01:11;8.57;;;2.00;;
51943;SDS011;37969;53.132;6.370;2023-09-19T14:03:38;8.68;;;2.08;;
51943;SDS011;37969;53.132;6.370;2023-09-19T14:06:05;7.68;;;1.83;;
51943;SDS011;37969;53.132;6.370;2023-09-19T14:08:31;10.10;;;1.63;;
51943;SDS011;37969;53.132;6.370;2023-09-19T14:10:59;9.18;;;1.85;;
51943;SDS011;37969;53.132;6.370;2023-09-19T14:13:31;7.07;;;1.65;;
51943;SDS011;37969;53.132;6.370;2023-09-19T14:15:57;8.68;;;1.90;;
51943;SDS011;37969;53.132;6.370;2023-09-19T14:18:23;5.93;;;1.50;;
51943;SDS011;37969;53.132;6.370;2023-09-19T14:20:50;7.95;;;1.95;;
51943;SDS011;37969;53.132;6.370;2023-09-19T14:23:18;3.92;;;1.42;;
51943;SDS011;37969;53.132;6.370;2023-09-19T14:25:44;9.25;;;1.80;;
51943;SDS011;37969;53.132;6.370;2023-09-19T14:28:10;10.70;;;2.05;;
51943;SDS011;37969;53.132;6.370;2023-09-19T14:30:37;6.18;;;2.10;;
51943;SDS011;37969;53.132;6.370;2023-09-19T14:33:04;7.65;;;1.92;;
51943;SDS011;37969;53.132;6.370;2023-09-19T14:35:31;8.95;;;1.88;;
51943;SDS011;37969;53.132;6.370;2023-09-19T14:37:57;7.65;;;2.08;;
51943;SDS011;37969;53.132;6.370;2023-09-19T14:40:23;9.77;;;2.28;;
51943;SDS011;37969;53.132;6.370;2023-09-19T14:42:50;8.38;;;1.98;;
51943;SDS011;37969;53.132;6.370;2023-09-19T14:45:17;9.32;;;2.00;;
51943;SDS011;37969;53.132;6.370;2023-09-19T14:47:45;7.20;;;1.88;;
51943;SDS011;37969;53.132;6.370;2023-09-19T14:50:12;7.85;;;2.30;;
51943;SDS011;37969;53.132;6.370;2023-09-19T14:52:38;6.38;;;1.98;;
51943;SDS011;37969;53.132;6.370;2023-09-19T14:55:05;7.50;;;1.85;;
51943;SDS011;37969;53.132;6.370;2023-09-19T14:57:33;7.18;;;1.73;;
51943;SDS011;37969;53.132;6.370;2023-09-19T14:59:59;9.25;;;2.08;;
51943;SDS011;37969;53.132;6.370;2023-09-19T15:02:26;11.20;;;2.08;;
51943;SDS011;37969;53.132;6.370;2023-09-19T15:04:52;5.90;;;1.92;;
51943;SDS011;37969;53.132;6.370;2023-09-19T15:07:18;8.73;;;1.63;;
51943;SDS011;37969;53.132;6.370;2023-09-19T15:09:45;7.63;;;1.77;;
51943;SDS011;37969;53.132;6.370;2023-09-19T15:12:11;7.22;;;2.17;;
51943;SDS011;37969;53.132;6.370;2023-09-19T15:14:39;12.25;;;1.80;;
51943;SDS011;37969;53.132;6.370;2023-09-19T15:17:07;12.60;;;2.92;;
51943;SDS011;37969;53.132;6.370;2023-09-19T15:19:33;9.80;;;1.95;;
51943;SDS011;37969;53.132;6.370;2023-09-19T15:22:00;7.47;;;1.80;;
51943;SDS011;37969;53.132;6.370;2023-09-19T15:24:26;11.27;;;1.90;;
51943;SDS011;37969;53.132;6.370;2023-09-19T15:26:53;7.55;;;2.17;;
51943;SDS011;37969;53.132;6.370;2023-09-19T15:29:20;6.28;;;2.22;;
51943;SDS011;37969;53.132;6.370;2023-09-19T15:31:46;9.00;;;2.53;;
51943;SDS011;37969;53.132;6.370;2023-09-19T15:34:13;12.32;;;2.10;;
51943;SDS011;37969;53.132;6.370;2023-09-19T15:36:41;10.18;;;2.35;;
51943;SDS011;37969;53.132;6.370;2023-09-19T15:39:07;7.47;;;2.00;;
51943;SDS011;37969;53.132;6.370;2023-09-19T15:41:37;6.22;;;1.92;;